sensor_id;sensor_type;location;lat;lon;timestamp;temperature;humidity
65378;SHT31;51982;51.042;13.806;2023-09-08T00:01:16;20.96;78.72
65378;SHT31;51982;51.042;13.806;2023-09-08T00:03:41;20.90;78.87
65378;SHT31;51982;51.042;13.806;2023-09-08T00:06:07;20.90;78.92
65378;SHT31;51982;51.042;13.806;2023-09-08T00:08:32;20.87;78.93
65378;SHT31;51982;51.042;13.806;2023-09-08T00:10:57;20.89;78.95
65378;SHT31;51982;51.042;13.806;2023-09-08T00:13:22;20.84;79.01
65378;SHT31;51982;51.042;13.806;2023-09-08T00:15:48;20.83;79.04
65378;SHT31;51982;51.042;13.806;2023-09-08T00:18:13;20.84;79.01
65378;SHT31;51982;51.042;13.806;2023-09-08T00:20:38;20.83;79.01
65378;SHT31;51982;51.042;13.806;2023-09-08T00:23:03;20.86;79.05
65378;SHT31;51982;51.042;13.806;2023-09-08T00:25:29;20.79;79.10
65378;SHT31;51982;51.042;13.806;2023-09-08T00:27:54;20.66;79.30
65378;SHT31;51982;51.042;13.806;2023-09-08T00:30:19;20.62;79.38
65378;SHT31;51982;51.042;13.806;2023-09-08T00:32:44;20.57;79.41
65378;SHT31;51982;51.042;13.806;2023-09-08T00:35:11;20.55;79.42
65378;SHT31;51982;51.042;13.806;2023-09-08T00:37:36;20.56;79.47
65378;SHT31;51982;51.042;13.806;2023-09-08T00:40:02;20.56;79.42
65378;SHT31;51982;51.042;13.806;2023-09-08T00:42:27;20.56;79.45
65378;SHT31;51982;51.042;13.806;2023-09-08T00:44:52;20.56;79.46
65378;SHT31;51982;51.042;13.806;2023-09-08T00:47:18;20.55;79.36
65378;SHT31;51982;51.042;13.806;2023-09-08T00:49:43;20.53;79.38
65378;SHT31;51982;51.042;13.806;2023-09-08T00:52:08;20.45;79.42
65378;SHT31;51982;51.042;13.806;2023-09-08T00:54:34;20.42;79.46
65378;SHT31;51982;51.042;13.806;2023-09-08T00:57:01;20.35;79.47
65378;SHT31;51982;51.042;13.806;2023-09-08T00:59:27;20.35;79.41
65378;SHT31;51982;51.042;13.806;2023-09-08T01:01:52;20.29;79.46
65378;SHT31;51982;51.042;13.806;2023-09-08T01:04:18;20.30;79.44
65378;SHT31;51982;51.042;13.806;2023-09-08T01:06:44;20.26;79.42
65378;SHT31;51982;51.042;13.806;2023-09-08T01:09:10;20.28;79.40
65378;SHT31;51982;51.042;13.806;2023-09-08T01:11:36;20.26;79.37
65378;SHT31;51982;51.042;13.806;2023-09-08T01:14:02;20.28;79.39
65378;SHT31;51982;51.042;13.806;2023-09-08T01:16:27;20.28;79.43
65378;SHT31;51982;51.042;13.806;2023-09-08T01:18:54;20.22;79.31
65378;SHT31;51982;51.042;13.806;2023-09-08T01:21:37;20.22;79.22
65378;SHT31;51982;51.042;13.806;2023-09-08T01:24:18;20.25;79.17
65378;SHT31;51982;51.042;13.806;2023-09-08T01:26:46;20.22;79.23
65378;SHT31;51982;51.042;13.806;2023-09-08T01:29:13;20.14;79.35
65378;SHT31;51982;51.042;13.806;2023-09-08T01:31:39;20.07;79.48
65378;SHT31;51982;51.042;13.806;2023-09-08T01:34:05;20.05;79.48
65378;SHT31;51982;51.042;13.806;2023-09-08T01:36:33;20.02;79.48
65378;SHT31;51982;51.042;13.806;2023-09-08T01:38:59;19.99;79.51
65378;SHT31;51982;51.042;13.806;2023-09-08T01:41:24;19.99;79.51
65378;SHT31;51982;51.042;13.806;2023-09-08T01:43:49;19.95;79.54
65378;SHT31;51982;51.042;13.806;2023-09-08T01:46:14;19.92;79.62
65378;SHT31;51982;51.042;13.806;2023-09-08T01:48:40;19.92;79.64
65378;SHT31;51982;51.042;13.806;2023-09-08T01:51:05;19.92;79.66
65378;SHT31;51982;51.042;13.806;2023-09-08T01:53:30;19.92;79.71
65378;SHT31;51982;51.042;13.806;2023-09-08T01:55:55;19.89;79.72
65378;SHT31;51982;51.042;13.806;2023-09-08T01:58:21;19.88;79.81
65378;SHT31;51982;51.042;13.806;2023-09-08T02:00:50;19.84;79.76
65378;SHT31;51982;51.042;13.806;2023-09-08T02:03:16;19.81;79.94
65378;SHT31;51982;51.042;13.806;2023-09-08T02:05:41;19.79;79.99
65378;SHT31;51982;51.042;13.806;2023-09-08T02:08:06;19.74;80.09
65378;SHT31;51982;51.042;13.806;2023-09-08T02:10:32;19.73;80.14
65378;SHT31;51982;51.042;13.806;2023-09-08T02:12:57;19.67;80.19
65378;SHT31;51982;51.042;13.806;2023-09-08T02:15:22;19.63;80.20
65378;SHT31;51982;51.042;13.806;2023-09-08T02:17:58;19.57;80.15
65378;SHT31;51982;51.042;13.806;2023-09-08T02:20:23;19.56;80.19
65378;SHT31;51982;51.042;13.806;2023-09-08T02:22:53;19.56;80.14
65378;SHT31;51982;51.042;13.806;2023-09-08T02:25:18;19.60;80.12
65378;SHT31;51982;51.042;13.806;2023-09-08T02:27:44;19.63;80.01
65378;SHT31;51982;51.042;13.806;2023-09-08T02:30:09;19.64;79.93
65378;SHT31;51982;51.042;13.806;2023-09-08T02:32:35;19.61;79.81
65378;SHT31;51982;51.042;13.806;2023-09-08T02:35:00;19.58;79.82
65378;SHT31;51982;51.042;13.806;2023-09-08T02:37:25;19.57;79.78
65378;SHT31;51982;51.042;13.806;2023-09-08T02:39:50;19.61;79.81
65378;SHT31;51982;51.042;13.806;2023-09-08T02:42:15;19.58;79.75
65378;SHT31;51982;51.042;13.806;2023-09-08T02:44:41;19.56;79.75
65378;SHT31;51982;51.042;13.806;2023-09-08T02:47:06;19.57;79.71
65378;SHT31;51982;51.042;13.806;2023-09-08T02:49:32;19.57;79.71
65378;SHT31;51982;51.042;13.806;2023-09-08T02:51:57;19.56;79.68
65378;SHT31;51982;51.042;13.806;2023-09-08T02:54:23;19.51;79.72
65378;SHT31;51982;51.042;13.806;2023-09-08T02:56:48;19.45;79.76
65378;SHT31;51982;51.042;13.806;2023-09-08T02:59:13;19.41;79.83
65378;SHT31;51982;51.042;13.806;2023-09-08T03:01:38;19.45;79.76
65378;SHT31;51982;51.042;13.806;2023-09-08T03:04:04;19.41;79.70
65378;SHT31;51982;51.042;13.806;2023-09-08T03:06:29;19.43;79.68
65378;SHT31;51982;51.042;13.806;2023-09-08T03:08:54;19.43;79.71
65378;SHT31;51982;51.042;13.806;2023-09-08T03:11:19;19.37;79.70
65378;SHT31;51982;51.042;13.806;2023-09-08T03:13:45;19.30;79.80
65378;SHT31;51982;51.042;13.806;2023-09-08T03:16:10;19.24;79.93
65378;SHT31;51982;51.042;13.806;2023-09-08T03:18:36;19.19;79.89
65378;SHT31;51982;51.042;13.806;2023-09-08T03:21:06;19.15;79.83
65378;SHT31;51982;51.042;13.806;2023-09-08T03:23:38;19.12;79.83
65378;SHT31;51982;51.042;13.806;2023-09-08T03:26:04;19.12;80.00
65378;SHT31;51982;51.042;13.806;2023-09-08T03:28:30;19.12;80.01
65378;SHT31;51982;51.042;13.806;2023-09-08T03:30:56;19.10;80.03
65378;SHT31;51982;51.042;13.806;2023-09-08T03:33:21;19.05;80.04
65378;SHT31;51982;51.042;13.806;2023-09-08T03:35:46;19.02;79.96
65378;SHT31;51982;51.042;13.806;2023-09-08T03:38:12;19.02;80.00
65378;SHT31;51982;51.042;13.806;2023-09-08T03:40:37;19.03;79.92
65378;SHT31;51982;51.042;13.806;2023-09-08T03:43:03;19.02;79.89
65378;SHT31;51982;51.042;13.806;2023-09-08T03:45:28;19.03;79.85
65378;SHT31;51982;51.042;13.806;2023-09-08T03:47:53;19.05;79.79
65378;SHT31;51982;51.042;13.806;2023-09-08T03:50:19;19.03;79.78
65378;SHT31;51982;51.042;13.806;2023-09-08T03:52:44;19.06;79.78
65378;SHT31;51982;51.042;13.806;2023-09-08T03:55:09;19.02;79.76
65378;SHT31;51982;51.042;13.806;2023-09-08T03:57:35;18.98;79.81
65378;SHT31;51982;51.042;13.806;2023-09-08T04:00:00;18.98;79.83
65378;SHT31;51982;51.042;13.806;2023-09-08T04:02:25;18.98;79.85
65378;SHT31;51982;51.042;13.806;2023-09-08T04:04:50;18.96;79.82
65378;SHT31;51982;51.042;13.806;2023-09-08T04:07:16;18.95;79.88
65378;SHT31;51982;51.042;13.806;2023-09-08T04:09:41;18.93;79.91
65378;SHT31;51982;51.042;13.806;2023-09-08T04:12:07;18.91;79.96
65378;SHT31;51982;51.042;13.806;2023-09-08T04:14:34;18.91;80.01
65378;SHT31;51982;51.042;13.806;2023-09-08T04:16:59;18.91;79.96
65378;SHT31;51982;51.042;13.806;2023-09-08T04:19:25;18.88;80.01
65378;SHT31;51982;51.042;13.806;2023-09-08T04:21:51;18.84;80.07
65378;SHT31;51982;51.042;13.806;2023-09-08T04:24:16;18.84;80.11
65378;SHT31;51982;51.042;13.806;2023-09-08T04:26:41;18.84;80.11
65378;SHT31;51982;51.042;13.806;2023-09-08T04:29:06;18.75;80.23
65378;SHT31;51982;51.042;13.806;2023-09-08T04:31:32;18.75;80.33
65378;SHT31;51982;51.042;13.806;2023-09-08T04:33:57;18.76;80.32
65378;SHT31;51982;51.042;13.806;2023-09-08T04:36:22;18.79;80.29
65378;SHT31;51982;51.042;13.806;2023-09-08T04:38:48;18.77;80.29
65378;SHT31;51982;51.042;13.806;2023-09-08T04:41:13;18.77;80.34
65378;SHT31;51982;51.042;13.806;2023-09-08T04:43:38;18.77;80.34
65378;SHT31;51982;51.042;13.806;2023-09-08T04:46:04;18.72;80.37
65378;SHT31;51982;51.042;13.806;2023-09-08T04:48:29;18.75;80.42
65378;SHT31;51982;51.042;13.806;2023-09-08T04:50:56;18.73;80.42
65378;SHT31;51982;51.042;13.806;2023-09-08T04:53:21;18.72;80.44
65378;SHT31;51982;51.042;13.806;2023-09-08T04:55:47;18.66;80.54
65378;SHT31;51982;51.042;13.806;2023-09-08T04:58:12;18.62;80.64
65378;SHT31;51982;51.042;13.806;2023-09-08T05:00:37;18.61;80.61
65378;SHT31;51982;51.042;13.806;2023-09-08T05:03:03;18.56;80.64
65378;SHT31;51982;51.042;13.806;2023-09-08T05:05:29;18.62;80.72
65378;SHT31;51982;51.042;13.806;2023-09-08T05:07:54;18.64;81.01
65378;SHT31;51982;51.042;13.806;2023-09-08T05:10:22;18.65;80.81
65378;SHT31;51982;51.042;13.806;2023-09-08T05:12:47;18.61;80.72
65378;SHT31;51982;51.042;13.806;2023-09-08T05:15:12;18.62;80.76
65378;SHT31;51982;51.042;13.806;2023-09-08T05:17:40;18.61;80.76
65378;SHT31;51982;51.042;13.806;2023-09-08T05:20:06;18.65;80.85
65378;SHT31;51982;51.042;13.806;2023-09-08T05:22:31;18.65;80.84
65378;SHT31;51982;51.042;13.806;2023-09-08T05:24:57;18.66;80.77
65378;SHT31;51982;51.042;13.806;2023-09-08T05:27:22;18.72;80.70
65378;SHT31;51982;51.042;13.806;2023-09-08T05:29:47;18.71;81.11
65378;SHT31;51982;51.042;13.806;2023-09-08T05:32:13;18.73;81.37
65378;SHT31;51982;51.042;13.806;2023-09-08T05:34:38;18.71;81.18
65378;SHT31;51982;51.042;13.806;2023-09-08T05:37:04;18.73;81.45
65378;SHT31;51982;51.042;13.806;2023-09-08T05:39:29;18.72;81.01
65378;SHT31;51982;51.042;13.806;2023-09-08T05:41:54;18.72;80.99
65378;SHT31;51982;51.042;13.806;2023-09-08T05:44:20;18.73;80.94
65378;SHT31;51982;51.042;13.806;2023-09-08T05:46:45;18.75;80.90
65378;SHT31;51982;51.042;13.806;2023-09-08T05:49:10;18.77;81.10
65378;SHT31;51982;51.042;13.806;2023-09-08T05:51:36;18.79;81.09
65378;SHT31;51982;51.042;13.806;2023-09-08T05:54:01;18.81;80.91
65378;SHT31;51982;51.042;13.806;2023-09-08T05:56:30;18.81;80.79
65378;SHT31;51982;51.042;13.806;2023-09-08T05:58:55;18.85;80.87
65378;SHT31;51982;51.042;13.806;2023-09-08T06:01:21;18.86;80.89
65378;SHT31;51982;51.042;13.806;2023-09-08T06:03:46;18.86;80.87
65378;SHT31;51982;51.042;13.806;2023-09-08T06:06:11;18.91;80.88
65378;SHT31;51982;51.042;13.806;2023-09-08T06:08:37;18.91;80.95
65378;SHT31;51982;51.042;13.806;2023-09-08T06:11:02;18.96;80.91
65378;SHT31;51982;51.042;13.806;2023-09-08T06:13:27;18.96;80.95
65378;SHT31;51982;51.042;13.806;2023-09-08T06:15:52;19.00;81.05
65378;SHT31;51982;51.042;13.806;2023-09-08T06:18:17;19.05;81.01
65378;SHT31;51982;51.042;13.806;2023-09-08T06:20:44;19.03;80.96
65378;SHT31;51982;51.042;13.806;2023-09-08T06:23:10;19.10;81.02
65378;SHT31;51982;51.042;13.806;2023-09-08T06:25:35;19.16;81.16
65378;SHT31;51982;51.042;13.806;2023-09-08T06:28:00;19.19;81.00
65378;SHT31;51982;51.042;13.806;2023-09-08T06:30:26;19.26;81.02
65378;SHT31;51982;51.042;13.806;2023-09-08T06:32:51;19.37;81.04
65378;SHT31;51982;51.042;13.806;2023-09-08T06:35:16;19.43;81.04
65378;SHT31;51982;51.042;13.806;2023-09-08T06:37:42;19.49;80.87
65378;SHT31;51982;51.042;13.806;2023-09-08T06:40:07;19.51;80.86
65378;SHT31;51982;51.042;13.806;2023-09-08T06:42:32;19.54;80.82
65378;SHT31;51982;51.042;13.806;2023-09-08T06:44:59;19.61;80.92
65378;SHT31;51982;51.042;13.806;2023-09-08T06:47:24;19.64;80.92
65378;SHT31;51982;51.042;13.806;2023-09-08T06:49:49;19.71;80.84
65378;SHT31;51982;51.042;13.806;2023-09-08T06:52:15;19.73;80.97
65378;SHT31;51982;51.042;13.806;2023-09-08T06:54:40;19.74;80.65
65378;SHT31;51982;51.042;13.806;2023-09-08T06:57:05;19.78;80.79
65378;SHT31;51982;51.042;13.806;2023-09-08T06:59:30;19.82;80.72
65378;SHT31;51982;51.042;13.806;2023-09-08T07:01:56;19.88;80.57
65378;SHT31;51982;51.042;13.806;2023-09-08T07:04:21;19.91;80.47
65378;SHT31;51982;51.042;13.806;2023-09-08T07:06:46;19.95;80.67
65378;SHT31;51982;51.042;13.806;2023-09-08T07:09:12;19.98;80.55
65378;SHT31;51982;51.042;13.806;2023-09-08T07:11:37;20.05;80.47
65378;SHT31;51982;51.042;13.806;2023-09-08T07:14:03;20.08;80.39
65378;SHT31;51982;51.042;13.806;2023-09-08T07:16:28;20.12;80.26
65378;SHT31;51982;51.042;13.806;2023-09-08T07:18:53;20.18;80.38
65378;SHT31;51982;51.042;13.806;2023-09-08T07:21:18;20.19;80.29
65378;SHT31;51982;51.042;13.806;2023-09-08T07:23:44;20.26;80.27
65378;SHT31;51982;51.042;13.806;2023-09-08T07:26:09;20.28;80.25
65378;SHT31;51982;51.042;13.806;2023-09-08T07:28:34;20.33;80.13
65378;SHT31;51982;51.042;13.806;2023-09-08T07:31:05;20.39;80.07
65378;SHT31;51982;51.042;13.806;2023-09-08T07:33:31;20.45;80.01
65378;SHT31;51982;51.042;13.806;2023-09-08T07:35:57;20.49;79.75
65378;SHT31;51982;51.042;13.806;2023-09-08T07:38:22;20.55;79.74
65378;SHT31;51982;51.042;13.806;2023-09-08T07:40:47;20.59;79.66
65378;SHT31;51982;51.042;13.806;2023-09-08T07:43:14;20.65;79.26
65378;SHT31;51982;51.042;13.806;2023-09-08T07:45:39;20.66;79.36
65378;SHT31;51982;51.042;13.806;2023-09-08T07:48:06;20.77;79.55
65378;SHT31;51982;51.042;13.806;2023-09-08T07:50:31;20.82;79.58
65378;SHT31;51982;51.042;13.806;2023-09-08T07:52:56;20.84;79.32
65378;SHT31;51982;51.042;13.806;2023-09-08T07:55:23;20.89;79.41
65378;SHT31;51982;51.042;13.806;2023-09-08T07:57:49;20.92;79.57
65378;SHT31;51982;51.042;13.806;2023-09-08T08:00:15;20.96;79.25
65378;SHT31;51982;51.042;13.806;2023-09-08T08:02:47;21.03;79.28
65378;SHT31;51982;51.042;13.806;2023-09-08T08:05:12;21.07;79.08
65378;SHT31;51982;51.042;13.806;2023-09-08T08:07:38;21.08;79.22
65378;SHT31;51982;51.042;13.806;2023-09-08T08:10:05;21.10;79.02
65378;SHT31;51982;51.042;13.806;2023-09-08T08:12:31;21.21;79.15
65378;SHT31;51982;51.042;13.806;2023-09-08T08:14:56;21.19;79.13
65378;SHT31;51982;51.042;13.806;2023-09-08T08:17:21;21.26;79.15
65378;SHT31;51982;51.042;13.806;2023-09-08T08:19:47;21.26;79.08
65378;SHT31;51982;51.042;13.806;2023-09-08T08:22:12;21.30;79.00
65378;SHT31;51982;51.042;13.806;2023-09-08T08:24:37;21.38;78.73
65378;SHT31;51982;51.042;13.806;2023-09-08T08:27:03;21.43;78.73
65378;SHT31;51982;51.042;13.806;2023-09-08T08:29:29;21.50;78.46
65378;SHT31;51982;51.042;13.806;2023-09-08T08:31:54;21.54;78.48
65378;SHT31;51982;51.042;13.806;2023-09-08T08:34:19;21.59;78.41
65378;SHT31;51982;51.042;13.806;2023-09-08T08:36:45;21.66;78.09
65378;SHT31;51982;51.042;13.806;2023-09-08T08:39:10;21.69;77.75
65378;SHT31;51982;51.042;13.806;2023-09-08T08:41:35;21.72;78.11
65378;SHT31;51982;51.042;13.806;2023-09-08T08:44:06;21.78;77.69
65378;SHT31;51982;51.042;13.806;2023-09-08T08:46:32;21.81;77.87
65378;SHT31;51982;51.042;13.806;2023-09-08T08:49:01;21.88;77.94
65378;SHT31;51982;51.042;13.806;2023-09-08T08:51:28;21.96;77.59
65378;SHT31;51982;51.042;13.806;2023-09-08T08:53:54;21.95;77.16
65378;SHT31;51982;51.042;13.806;2023-09-08T08:56:20;21.99;77.05
65378;SHT31;51982;51.042;13.806;2023-09-08T08:58:45;22.05;76.69
65378;SHT31;51982;51.042;13.806;2023-09-08T09:01:11;22.13;76.70
65378;SHT31;51982;51.042;13.806;2023-09-08T09:03:38;22.20;76.79
65378;SHT31;51982;51.042;13.806;2023-09-08T09:06:04;22.23;76.56
65378;SHT31;51982;51.042;13.806;2023-09-08T09:08:31;22.28;76.59
65378;SHT31;51982;51.042;13.806;2023-09-08T09:10:56;22.29;76.69
65378;SHT31;51982;51.042;13.806;2023-09-08T09:13:21;22.32;76.81
65378;SHT31;51982;51.042;13.806;2023-09-08T09:15:50;22.37;76.33
65378;SHT31;51982;51.042;13.806;2023-09-08T09:18:16;22.43;75.92
65378;SHT31;51982;51.042;13.806;2023-09-08T09:20:53;22.45;76.32
65378;SHT31;51982;51.042;13.806;2023-09-08T09:23:30;22.43;76.17
65378;SHT31;51982;51.042;13.806;2023-09-08T09:25:56;22.50;76.01
65378;SHT31;51982;51.042;13.806;2023-09-08T09:28:21;22.57;76.29
65378;SHT31;51982;51.042;13.806;2023-09-08T09:30:48;22.60;76.20
65378;SHT31;51982;51.042;13.806;2023-09-08T09:33:14;22.66;76.07
65378;SHT31;51982;51.042;13.806;2023-09-08T09:35:44;22.70;76.05
65378;SHT31;51982;51.042;13.806;2023-09-08T09:38:11;22.78;75.63
65378;SHT31;51982;51.042;13.806;2023-09-08T09:40:37;22.84;75.54
65378;SHT31;51982;51.042;13.806;2023-09-08T09:43:02;22.94;74.82
65378;SHT31;51982;51.042;13.806;2023-09-08T09:45:30;23.04;73.64
65378;SHT31;51982;51.042;13.806;2023-09-08T09:47:55;23.04;73.35
65378;SHT31;51982;51.042;13.806;2023-09-08T09:50:31;23.08;72.68
65378;SHT31;51982;51.042;13.806;2023-09-08T09:52:59;23.15;71.33
65378;SHT31;51982;51.042;13.806;2023-09-08T09:55:26;23.22;70.80
65378;SHT31;51982;51.042;13.806;2023-09-08T09:57:56;23.32;71.02
65378;SHT31;51982;51.042;13.806;2023-09-08T10:00:26;23.31;71.59
65378;SHT31;51982;51.042;13.806;2023-09-08T10:02:54;23.32;71.09
65378;SHT31;51982;51.042;13.806;2023-09-08T10:05:19;23.41;70.32
65378;SHT31;51982;51.042;13.806;2023-09-08T10:07:47;23.41;69.65
65378;SHT31;51982;51.042;13.806;2023-09-08T10:10:12;23.42;70.52
65378;SHT31;51982;51.042;13.806;2023-09-08T10:12:38;23.47;70.16
65378;SHT31;51982;51.042;13.806;2023-09-08T10:15:05;23.52;70.59
65378;SHT31;51982;51.042;13.806;2023-09-08T10:17:33;23.55;70.03
65378;SHT31;51982;51.042;13.806;2023-09-08T10:20:00;23.61;70.71
65378;SHT31;51982;51.042;13.806;2023-09-08T10:22:30;23.61;70.60
65378;SHT31;51982;51.042;13.806;2023-09-08T10:24:57;23.62;70.75
65378;SHT31;51982;51.042;13.806;2023-09-08T10:27:25;23.65;70.47
65378;SHT31;51982;51.042;13.806;2023-09-08T10:29:51;23.69;69.21
65378;SHT31;51982;51.042;13.806;2023-09-08T10:32:18;23.76;69.84
65378;SHT31;51982;51.042;13.806;2023-09-08T10:34:45;23.78;69.62
65378;SHT31;51982;51.042;13.806;2023-09-08T10:37:24;23.86;66.83
65378;SHT31;51982;51.042;13.806;2023-09-08T10:39:51;23.93;68.01
65378;SHT31;51982;51.042;13.806;2023-09-08T10:44:43;23.95;67.89
65378;SHT31;51982;51.042;13.806;2023-09-08T10:47:09;23.98;68.50
65378;SHT31;51982;51.042;13.806;2023-09-08T10:49:35;23.99;68.05
65378;SHT31;51982;51.042;13.806;2023-09-08T10:52:11;24.03;67.35
65378;SHT31;51982;51.042;13.806;2023-09-08T10:54:43;24.06;68.21
65378;SHT31;51982;51.042;13.806;2023-09-08T10:57:13;24.06;68.05
65378;SHT31;51982;51.042;13.806;2023-09-08T10:59:39;24.13;67.65
65378;SHT31;51982;51.042;13.806;2023-09-08T11:02:05;24.17;67.54
65378;SHT31;51982;51.042;13.806;2023-09-08T11:04:31;24.26;67.59
65378;SHT31;51982;51.042;13.806;2023-09-08T11:06:57;24.27;65.57
65378;SHT31;51982;51.042;13.806;2023-09-08T11:09:22;24.29;65.71
65378;SHT31;51982;51.042;13.806;2023-09-08T11:11:49;24.34;66.30
65378;SHT31;51982;51.042;13.806;2023-09-08T11:14:14;24.40;66.24
65378;SHT31;51982;51.042;13.806;2023-09-08T11:16:40;24.46;65.32
65378;SHT31;51982;51.042;13.806;2023-09-08T11:19:05;24.53;64.57
65378;SHT31;51982;51.042;13.806;2023-09-08T11:21:31;24.53;65.10
65378;SHT31;51982;51.042;13.806;2023-09-08T11:24:01;24.59;65.05
65378;SHT31;51982;51.042;13.806;2023-09-08T11:26:27;24.65;64.30
65378;SHT31;51982;51.042;13.806;2023-09-08T11:28:54;24.68;66.08
65378;SHT31;51982;51.042;13.806;2023-09-08T11:31:19;24.64;66.56
65378;SHT31;51982;51.042;13.806;2023-09-08T11:33:48;24.59;66.78
65378;SHT31;51982;51.042;13.806;2023-09-08T11:36:14;24.65;66.78
65378;SHT31;51982;51.042;13.806;2023-09-08T11:38:39;24.63;66.84
65378;SHT31;51982;51.042;13.806;2023-09-08T11:41:06;24.72;65.24
65378;SHT31;51982;51.042;13.806;2023-09-08T11:43:31;24.71;66.44
65378;SHT31;51982;51.042;13.806;2023-09-08T11:45:59;24.72;66.78
65378;SHT31;51982;51.042;13.806;2023-09-08T11:48:24;24.72;66.95
65378;SHT31;51982;51.042;13.806;2023-09-08T11:50:53;24.78;66.51
65378;SHT31;51982;51.042;13.806;2023-09-08T11:53:20;24.84;66.61
65378;SHT31;51982;51.042;13.806;2023-09-08T11:55:46;24.82;66.79
65378;SHT31;51982;51.042;13.806;2023-09-08T11:58:12;24.81;67.24
65378;SHT31;51982;51.042;13.806;2023-09-08T12:00:37;24.81;66.87
65378;SHT31;51982;51.042;13.806;2023-09-08T12:03:11;24.88;66.81
65378;SHT31;51982;51.042;13.806;2023-09-08T12:05:37;24.91;66.44
65378;SHT31;51982;51.042;13.806;2023-09-08T12:08:04;24.95;67.05
65378;SHT31;51982;51.042;13.806;2023-09-08T12:10:42;24.99;66.73
65378;SHT31;51982;51.042;13.806;2023-09-08T12:13:07;24.96;67.16
65378;SHT31;51982;51.042;13.806;2023-09-08T12:15:37;24.96;66.97
65378;SHT31;51982;51.042;13.806;2023-09-08T12:18:05;25.01;67.17
65378;SHT31;51982;51.042;13.806;2023-09-08T12:20:31;25.01;67.56
65378;SHT31;51982;51.042;13.806;2023-09-08T12:23:04;25.04;67.41
65378;SHT31;51982;51.042;13.806;2023-09-08T12:25:30;25.05;66.95
65378;SHT31;51982;51.042;13.806;2023-09-08T12:27:59;25.08;66.16
65378;SHT31;51982;51.042;13.806;2023-09-08T12:30:25;25.12;66.70
65378;SHT31;51982;51.042;13.806;2023-09-08T12:32:56;25.11;66.26
65378;SHT31;51982;51.042;13.806;2023-09-08T12:35:22;25.12;64.99
65378;SHT31;51982;51.042;13.806;2023-09-08T12:38:02;25.18;63.36
65378;SHT31;51982;51.042;13.806;2023-09-08T12:40:29;25.23;63.85
65378;SHT31;51982;51.042;13.806;2023-09-08T12:42:57;25.25;63.22
65378;SHT31;51982;51.042;13.806;2023-09-08T12:45:25;25.31;62.78
65378;SHT31;51982;51.042;13.806;2023-09-08T12:47:51;25.39;61.94
65378;SHT31;51982;51.042;13.806;2023-09-08T12:50:16;25.47;62.02
65378;SHT31;51982;51.042;13.806;2023-09-08T12:52:42;25.55;61.36
65378;SHT31;51982;51.042;13.806;2023-09-08T12:55:08;25.50;61.82
65378;SHT31;51982;51.042;13.806;2023-09-08T12:57:34;25.53;61.65
65378;SHT31;51982;51.042;13.806;2023-09-08T12:59:59;25.52;61.75
65378;SHT31;51982;51.042;13.806;2023-09-08T13:02:25;25.58;61.14
65378;SHT31;51982;51.042;13.806;2023-09-08T13:04:50;25.66;61.50
65378;SHT31;51982;51.042;13.806;2023-09-08T13:07:16;25.65;61.64
65378;SHT31;51982;51.042;13.806;2023-09-08T13:09:41;25.63;61.76
65378;SHT31;51982;51.042;13.806;2023-09-08T13:12:07;25.63;61.98
65378;SHT31;51982;51.042;13.806;2023-09-08T13:14:34;25.70;61.66
65378;SHT31;51982;51.042;13.806;2023-09-08T13:17:00;25.70;62.26
65378;SHT31;51982;51.042;13.806;2023-09-08T13:19:25;25.76;61.74
65378;SHT31;51982;51.042;13.806;2023-09-08T13:21:50;25.86;61.16
65378;SHT31;51982;51.042;13.806;2023-09-08T13:24:15;25.92;61.18
65378;SHT31;51982;51.042;13.806;2023-09-08T13:26:41;25.92;60.86
65378;SHT31;51982;51.042;13.806;2023-09-08T13:29:06;25.87;61.49
65378;SHT31;51982;51.042;13.806;2023-09-08T13:31:31;25.83;61.97
65378;SHT31;51982;51.042;13.806;2023-09-08T13:33:56;25.80;62.11
65378;SHT31;51982;51.042;13.806;2023-09-08T13:36:21;25.89;60.98
65378;SHT31;51982;51.042;13.806;2023-09-08T13:38:47;25.94;60.58
65378;SHT31;51982;51.042;13.806;2023-09-08T13:41:14;25.98;60.53
65378;SHT31;51982;51.042;13.806;2023-09-08T13:43:39;25.94;61.06
65378;SHT31;51982;51.042;13.806;2023-09-08T13:46:04;25.93;61.25
65378;SHT31;51982;51.042;13.806;2023-09-08T13:48:29;25.96;60.62
65378;SHT31;51982;51.042;13.806;2023-09-08T13:50:55;26.00;60.62
65378;SHT31;51982;51.042;13.806;2023-09-08T13:53:21;26.08;60.81
65378;SHT31;51982;51.042;13.806;2023-09-08T13:55:46;26.13;60.90
65378;SHT31;51982;51.042;13.806;2023-09-08T13:58:13;26.16;61.01
65378;SHT31;51982;51.042;13.806;2023-09-08T14:00:38;26.10;61.43
65378;SHT31;51982;51.042;13.806;2023-09-08T14:03:04;26.14;61.20
65378;SHT31;51982;51.042;13.806;2023-09-08T14:05:29;26.18;61.74
65378;SHT31;51982;51.042;13.806;2023-09-08T14:07:54;26.20;61.92
65378;SHT31;51982;51.042;13.806;2023-09-08T14:10:20;26.17;62.25
65378;SHT31;51982;51.042;13.806;2023-09-08T14:12:45;26.14;62.01
65378;SHT31;51982;51.042;13.806;2023-09-08T14:15:10;26.16;61.51
65378;SHT31;51982;51.042;13.806;2023-09-08T14:17:40;26.18;61.22
65378;SHT31;51982;51.042;13.806;2023-09-08T14:20:06;26.17;61.72
65378;SHT31;51982;51.042;13.806;2023-09-08T14:22:31;26.26;61.21
65378;SHT31;51982;51.042;13.806;2023-09-08T14:24:57;26.27;61.22
65378;SHT31;51982;51.042;13.806;2023-09-08T14:27:22;26.24;61.32
65378;SHT31;51982;51.042;13.806;2023-09-08T14:29:47;26.21;61.29
65378;SHT31;51982;51.042;13.806;2023-09-08T14:32:13;26.17;61.64
65378;SHT31;51982;51.042;13.806;2023-09-08T14:34:38;26.17;61.81
65378;SHT31;51982;51.042;13.806;2023-09-08T14:37:03;26.20;61.26
65378;SHT31;51982;51.042;13.806;2023-09-08T14:39:28;26.21;61.44
65378;SHT31;51982;51.042;13.806;2023-09-08T14:41:54;26.23;60.52
65378;SHT31;51982;51.042;13.806;2023-09-08T14:44:20;26.30;59.86
65378;SHT31;51982;51.042;13.806;2023-09-08T14:46:47;26.34;60.24
65378;SHT31;51982;51.042;13.806;2023-09-08T14:49:13;26.30;60.35
65378;SHT31;51982;51.042;13.806;2023-09-08T14:51:40;26.33;60.80
65378;SHT31;51982;51.042;13.806;2023-09-08T14:54:05;26.27;61.04
65378;SHT31;51982;51.042;13.806;2023-09-08T14:56:30;26.28;60.82
65378;SHT31;51982;51.042;13.806;2023-09-08T14:58:56;26.26;60.98
65378;SHT31;51982;51.042;13.806;2023-09-08T15:01:21;26.26;60.87
65378;SHT31;51982;51.042;13.806;2023-09-08T15:03:47;26.30;60.82
65378;SHT31;51982;51.042;13.806;2023-09-08T15:06:12;26.27;60.96
65378;SHT31;51982;51.042;13.806;2023-09-08T15:08:37;26.26;61.47
65378;SHT31;51982;51.042;13.806;2023-09-08T15:11:03;26.24;61.44